Terminal Aerodrome Forecast
Issued by NWS

Home | Current Version | Previous Version | Graphics & Text | Print | Product List | Glossary On
Versions: 1 2 3 4 5 6 7 8 9 10 11 12 13 14 15 16 17 18 19 20
000
FTUS43 KIWX 222300
TAFSBN
TAF
KSBN 222336Z 2300/2324 12012KT 5SM -RA BR OVC009
     FM230200 12014KT 3SM -SHRA OVC035
     FM230700 13012KT 2SM -RA BR OVC008
     FM231000 16012KT 2SM BR OVC004
     FM231600 20010KT 5SM HZ OVC015=

USA.gov is the U.S. government's official web portal to all federal, state and local government web resources and services.